sensor_id;sensor_type;location;lat;lon;timestamp;P1;durP1;ratioP1;P2;durP2;ratioP2
65009;SDS011;51556;50.002;22.014;2022-11-23T00:01:19;102.70;;;45.90;;
65009;SDS011;51556;50.002;22.014;2022-11-23T00:03:47;106.20;;;46.10;;
65009;SDS011;51556;50.002;22.014;2022-11-23T00:06:14;96.60;;;44.40;;
65009;SDS011;51556;50.002;22.014;2022-11-23T00:08:40;98.10;;;42.00;;
65009;SDS011;51556;50.002;22.014;2022-11-23T00:11:06;91.40;;;42.20;;
65009;SDS011;51556;50.002;22.014;2022-11-23T00:13:32;83.60;;;40.30;;
65009;SDS011;51556;50.002;22.014;2022-11-23T00:16:16;81.00;;;38.00;;
65009;SDS011;51556;50.002;22.014;2022-11-23T00:18:44;70.90;;;33.20;;
65009;SDS011;51556;50.002;22.014;2022-11-23T00:21:10;68.50;;;32.00;;
65009;SDS011;51556;50.002;22.014;2022-11-23T00:23:40;82.40;;;38.00;;
65009;SDS011;51556;50.002;22.014;2022-11-23T00:26:06;84.40;;;39.10;;
65009;SDS011;51556;50.002;22.014;2022-11-23T00:28:32;74.00;;;35.30;;
65009;SDS011;51556;50.002;22.014;2022-11-23T00:31:01;73.30;;;34.60;;
65009;SDS011;51556;50.002;22.014;2022-11-23T00:33:26;68.10;;;33.10;;
65009;SDS011;51556;50.002;22.014;2022-11-23T00:35:59;67.70;;;30.00;;
65009;SDS011;51556;50.002;22.014;2022-11-23T00:38:24;64.50;;;30.20;;
65009;SDS011;51556;50.002;22.014;2022-11-23T00:40:55;79.70;;;36.00;;
65009;SDS011;51556;50.002;22.014;2022-11-23T00:43:28;79.10;;;36.10;;
65009;SDS011;51556;50.002;22.014;2022-11-23T00:46:04;84.30;;;38.60;;
65009;SDS011;51556;50.002;22.014;2022-11-23T00:48:36;80.70;;;37.20;;
65009;SDS011;51556;50.002;22.014;2022-11-23T00:51:03;82.80;;;36.50;;
65009;SDS011;51556;50.002;22.014;2022-11-23T00:53:29;81.70;;;38.00;;
65009;SDS011;51556;50.002;22.014;2022-11-23T00:55:55;78.90;;;36.00;;
65009;SDS011;51556;50.002;22.014;2022-11-23T00:58:21;76.80;;;36.50;;
65009;SDS011;51556;50.002;22.014;2022-11-23T01:00:47;77.60;;;35.80;;
65009;SDS011;51556;50.002;22.014;2022-11-23T01:03:13;76.50;;;34.80;;
65009;SDS011;51556;50.002;22.014;2022-11-23T01:05:39;74.20;;;33.10;;
65009;SDS011;51556;50.002;22.014;2022-11-23T01:08:05;70.50;;;34.00;;
65009;SDS011;51556;50.002;22.014;2022-11-23T01:10:31;79.30;;;36.10;;
65009;SDS011;51556;50.002;22.014;2022-11-23T01:12:57;78.90;;;34.90;;
65009;SDS011;51556;50.002;22.014;2022-11-23T01:15:22;79.10;;;35.00;;
65009;SDS011;51556;50.002;22.014;2022-11-23T01:17:48;71.80;;;33.70;;
65009;SDS011;51556;50.002;22.014;2022-11-23T01:20:14;78.70;;;35.00;;
65009;SDS011;51556;50.002;22.014;2022-11-23T01:22:39;77.90;;;34.50;;
65009;SDS011;51556;50.002;22.014;2022-11-23T01:25:05;88.20;;;37.20;;
65009;SDS011;51556;50.002;22.014;2022-11-23T01:27:31;86.90;;;38.10;;
65009;SDS011;51556;50.002;22.014;2022-11-23T01:29:56;81.30;;;38.80;;
65009;SDS011;51556;50.002;22.014;2022-11-23T01:32:22;85.30;;;37.50;;
65009;SDS011;51556;50.002;22.014;2022-11-23T01:34:47;84.40;;;36.00;;
65009;SDS011;51556;50.002;22.014;2022-11-23T01:37:12;84.40;;;35.80;;
65009;SDS011;51556;50.002;22.014;2022-11-23T01:39:38;78.70;;;34.90;;
65009;SDS011;51556;50.002;22.014;2022-11-23T01:42:03;73.20;;;35.70;;
65009;SDS011;51556;50.002;22.014;2022-11-23T01:44:33;76.80;;;34.80;;
65009;SDS011;51556;50.002;22.014;2022-11-23T01:47:04;72.80;;;34.70;;
65009;SDS011;51556;50.002;22.014;2022-11-23T01:49:36;79.40;;;34.80;;
65009;SDS011;51556;50.002;22.014;2022-11-23T01:52:23;64.00;;;31.60;;
65009;SDS011;51556;50.002;22.014;2022-11-23T01:54:54;77.10;;;33.30;;
65009;SDS011;51556;50.002;22.014;2022-11-23T01:57:32;70.80;;;32.50;;
65009;SDS011;51556;50.002;22.014;2022-11-23T02:00:03;78.50;;;34.40;;
65009;SDS011;51556;50.002;22.014;2022-11-23T02:02:28;76.80;;;34.70;;
65009;SDS011;51556;50.002;22.014;2022-11-23T02:04:56;79.40;;;32.80;;
65009;SDS011;51556;50.002;22.014;2022-11-23T02:07:25;77.60;;;34.10;;
65009;SDS011;51556;50.002;22.014;2022-11-23T02:09:52;74.20;;;32.00;;
65009;SDS011;51556;50.002;22.014;2022-11-23T02:12:18;74.70;;;34.10;;
65009;SDS011;51556;50.002;22.014;2022-11-23T02:14:44;73.20;;;33.70;;
65009;SDS011;51556;50.002;22.014;2022-11-23T02:17:10;86.80;;;38.30;;
65009;SDS011;51556;50.002;22.014;2022-11-23T02:22:41;106.00;;;46.00;;
65009;SDS011;51556;50.002;22.014;2022-11-23T02:25:18;115.90;;;46.70;;
65009;SDS011;51556;50.002;22.014;2022-11-23T02:27:54;113.80;;;48.50;;
65009;SDS011;51556;50.002;22.014;2022-11-23T02:30:20;111.30;;;48.80;;
65009;SDS011;51556;50.002;22.014;2022-11-23T02:32:45;115.20;;;50.10;;
65009;SDS011;51556;50.002;22.014;2022-11-23T02:35:11;121.10;;;50.00;;
65009;SDS011;51556;50.002;22.014;2022-11-23T02:37:36;118.00;;;50.50;;
65009;SDS011;51556;50.002;22.014;2022-11-23T02:40:04;116.90;;;51.50;;
65009;SDS011;51556;50.002;22.014;2022-11-23T02:42:40;116.70;;;51.00;;
65009;SDS011;51556;50.002;22.014;2022-11-23T02:45:15;129.30;;;52.70;;
65009;SDS011;51556;50.002;22.014;2022-11-23T02:47:47;138.90;;;54.60;;
65009;SDS011;51556;50.002;22.014;2022-11-23T02:50:13;119.70;;;51.80;;
65009;SDS011;51556;50.002;22.014;2022-11-23T02:52:39;132.40;;;51.60;;
65009;SDS011;51556;50.002;22.014;2022-11-23T02:55:05;116.50;;;52.00;;
65009;SDS011;51556;50.002;22.014;2022-11-23T02:57:30;127.80;;;53.20;;
65009;SDS011;51556;50.002;22.014;2022-11-23T02:59:56;117.50;;;47.80;;
65009;SDS011;51556;50.002;22.014;2022-11-23T03:02:21;112.10;;;48.60;;
65009;SDS011;51556;50.002;22.014;2022-11-23T03:04:46;111.30;;;46.50;;
65009;SDS011;51556;50.002;22.014;2022-11-23T03:07:12;101.90;;;42.90;;
65009;SDS011;51556;50.002;22.014;2022-11-23T03:09:37;99.10;;;44.70;;
65009;SDS011;51556;50.002;22.014;2022-11-23T03:12:02;115.40;;;47.50;;
65009;SDS011;51556;50.002;22.014;2022-11-23T03:14:28;112.30;;;46.60;;
65009;SDS011;51556;50.002;22.014;2022-11-23T03:16:53;106.70;;;47.00;;
65009;SDS011;51556;50.002;22.014;2022-11-23T03:19:19;116.10;;;47.60;;
65009;SDS011;51556;50.002;22.014;2022-11-23T03:21:44;115.10;;;46.50;;
65009;SDS011;51556;50.002;22.014;2022-11-23T03:24:09;111.60;;;45.00;;
65009;SDS011;51556;50.002;22.014;2022-11-23T03:26:35;122.90;;;48.20;;
65009;SDS011;51556;50.002;22.014;2022-11-23T03:29:00;105.80;;;46.30;;
65009;SDS011;51556;50.002;22.014;2022-11-23T03:31:25;94.80;;;43.10;;
65009;SDS011;51556;50.002;22.014;2022-11-23T03:33:51;97.30;;;43.10;;
65009;SDS011;51556;50.002;22.014;2022-11-23T03:36:16;95.90;;;45.30;;
65009;SDS011;51556;50.002;22.014;2022-11-23T03:38:42;104.00;;;44.80;;
65009;SDS011;51556;50.002;22.014;2022-11-23T03:41:07;101.20;;;45.80;;
65009;SDS011;51556;50.002;22.014;2022-11-23T03:43:33;102.30;;;46.20;;
65009;SDS011;51556;50.002;22.014;2022-11-23T03:45:58;103.90;;;45.60;;
65009;SDS011;51556;50.002;22.014;2022-11-23T03:48:24;97.70;;;43.50;;
65009;SDS011;51556;50.002;22.014;2022-11-23T03:50:49;106.20;;;45.40;;
65009;SDS011;51556;50.002;22.014;2022-11-23T03:53:15;106.50;;;46.10;;
65009;SDS011;51556;50.002;22.014;2022-11-23T03:55:40;101.40;;;44.80;;
65009;SDS011;51556;50.002;22.014;2022-11-23T03:58:05;101.90;;;44.90;;
65009;SDS011;51556;50.002;22.014;2022-11-23T04:00:31;94.00;;;42.40;;
65009;SDS011;51556;50.002;22.014;2022-11-23T04:02:56;93.20;;;42.30;;
65009;SDS011;51556;50.002;22.014;2022-11-23T04:05:22;91.00;;;39.60;;
65009;SDS011;51556;50.002;22.014;2022-11-23T04:07:48;94.90;;;39.80;;
65009;SDS011;51556;50.002;22.014;2022-11-23T04:10:15;83.90;;;37.70;;
65009;SDS011;51556;50.002;22.014;2022-11-23T04:12:41;92.80;;;40.10;;
65009;SDS011;51556;50.002;22.014;2022-11-23T04:15:07;87.50;;;36.40;;
65009;SDS011;51556;50.002;22.014;2022-11-23T04:17:33;94.30;;;39.00;;
65009;SDS011;51556;50.002;22.014;2022-11-23T04:19:58;95.40;;;39.60;;
65009;SDS011;51556;50.002;22.014;2022-11-23T04:22:24;88.00;;;36.70;;
65009;SDS011;51556;50.002;22.014;2022-11-23T04:24:49;82.00;;;34.60;;
65009;SDS011;51556;50.002;22.014;2022-11-23T04:27:14;81.50;;;36.20;;
65009;SDS011;51556;50.002;22.014;2022-11-23T04:29:40;74.60;;;33.60;;
65009;SDS011;51556;50.002;22.014;2022-11-23T04:32:05;69.50;;;32.90;;
65009;SDS011;51556;50.002;22.014;2022-11-23T04:34:30;68.10;;;31.10;;
65009;SDS011;51556;50.002;22.014;2022-11-23T04:36:56;74.80;;;33.20;;
65009;SDS011;51556;50.002;22.014;2022-11-23T04:39:21;76.50;;;32.70;;
65009;SDS011;51556;50.002;22.014;2022-11-23T04:41:46;62.90;;;29.20;;
65009;SDS011;51556;50.002;22.014;2022-11-23T04:44:12;63.80;;;27.20;;
65009;SDS011;51556;50.002;22.014;2022-11-23T04:46:37;62.00;;;28.60;;
65009;SDS011;51556;50.002;22.014;2022-11-23T04:49:02;62.60;;;28.60;;
65009;SDS011;51556;50.002;22.014;2022-11-23T04:51:28;61.70;;;27.80;;
65009;SDS011;51556;50.002;22.014;2022-11-23T04:53:53;64.10;;;28.60;;
65009;SDS011;51556;50.002;22.014;2022-11-23T04:56:18;70.00;;;32.20;;
65009;SDS011;51556;50.002;22.014;2022-11-23T04:58:44;68.90;;;30.90;;
65009;SDS011;51556;50.002;22.014;2022-11-23T05:01:09;67.60;;;29.90;;
65009;SDS011;51556;50.002;22.014;2022-11-23T05:03:35;48.00;;;22.90;;
65009;SDS011;51556;50.002;22.014;2022-11-23T05:06:01;51.30;;;23.00;;
65009;SDS011;51556;50.002;22.014;2022-11-23T05:08:28;40.60;;;18.90;;
65009;SDS011;51556;50.002;22.014;2022-11-23T05:10:54;35.70;;;18.40;;
65009;SDS011;51556;50.002;22.014;2022-11-23T05:13:19;38.70;;;20.10;;
65009;SDS011;51556;50.002;22.014;2022-11-23T05:15:45;36.00;;;17.30;;
65009;SDS011;51556;50.002;22.014;2022-11-23T05:18:10;27.20;;;14.60;;
65009;SDS011;51556;50.002;22.014;2022-11-23T05:20:36;29.60;;;16.00;;
65009;SDS011;51556;50.002;22.014;2022-11-23T05:23:02;27.50;;;14.40;;
65009;SDS011;51556;50.002;22.014;2022-11-23T05:25:28;25.60;;;12.20;;
65009;SDS011;51556;50.002;22.014;2022-11-23T05:27:53;24.70;;;11.90;;
65009;SDS011;51556;50.002;22.014;2022-11-23T05:30:19;28.70;;;13.60;;
65009;SDS011;51556;50.002;22.014;2022-11-23T05:32:45;27.90;;;13.90;;
65009;SDS011;51556;50.002;22.014;2022-11-23T05:35:10;27.30;;;12.80;;
65009;SDS011;51556;50.002;22.014;2022-11-23T05:37:37;36.60;;;16.90;;
65009;SDS011;51556;50.002;22.014;2022-11-23T05:40:03;40.20;;;16.00;;
65009;SDS011;51556;50.002;22.014;2022-11-23T05:42:28;37.90;;;17.30;;
65009;SDS011;51556;50.002;22.014;2022-11-23T05:44:54;39.80;;;17.50;;
65009;SDS011;51556;50.002;22.014;2022-11-23T05:47:19;36.80;;;15.30;;
65009;SDS011;51556;50.002;22.014;2022-11-23T05:49:44;29.20;;;12.90;;
65009;SDS011;51556;50.002;22.014;2022-11-23T05:52:10;30.70;;;12.60;;
65009;SDS011;51556;50.002;22.014;2022-11-23T05:54:35;30.10;;;12.90;;
65009;SDS011;51556;50.002;22.014;2022-11-23T05:57:00;30.60;;;12.90;;
65009;SDS011;51556;50.002;22.014;2022-11-23T05:59:26;34.10;;;16.10;;
65009;SDS011;51556;50.002;22.014;2022-11-23T06:01:51;30.90;;;14.00;;
65009;SDS011;51556;50.002;22.014;2022-11-23T06:04:17;25.30;;;11.50;;
65009;SDS011;51556;50.002;22.014;2022-11-23T06:06:42;27.90;;;12.60;;
65009;SDS011;51556;50.002;22.014;2022-11-23T06:09:07;30.30;;;13.00;;
65009;SDS011;51556;50.002;22.014;2022-11-23T06:11:33;26.70;;;13.50;;
65009;SDS011;51556;50.002;22.014;2022-11-23T06:13:59;27.30;;;12.20;;
65009;SDS011;51556;50.002;22.014;2022-11-23T06:16:25;27.30;;;13.00;;
65009;SDS011;51556;50.002;22.014;2022-11-23T06:18:50;22.00;;;10.20;;
65009;SDS011;51556;50.002;22.014;2022-11-23T06:21:16;24.10;;;10.80;;
65009;SDS011;51556;50.002;22.014;2022-11-23T06:23:41;23.40;;;11.60;;
65009;SDS011;51556;50.002;22.014;2022-11-23T06:26:07;25.30;;;11.90;;
65009;SDS011;51556;50.002;22.014;2022-11-23T06:28:32;19.90;;;9.20;;
65009;SDS011;51556;50.002;22.014;2022-11-23T06:31:00;19.80;;;9.10;;
65009;SDS011;51556;50.002;22.014;2022-11-23T06:33:30;25.50;;;12.70;;
65009;SDS011;51556;50.002;22.014;2022-11-23T06:35:58;17.80;;;10.70;;
65009;SDS011;51556;50.002;22.014;2022-11-23T06:38:24;27.20;;;12.40;;
65009;SDS011;51556;50.002;22.014;2022-11-23T06:40:50;19.90;;;9.60;;
65009;SDS011;51556;50.002;22.014;2022-11-23T06:43:15;22.80;;;12.00;;
65009;SDS011;51556;50.002;22.014;2022-11-23T06:45:40;20.20;;;10.30;;
65009;SDS011;51556;50.002;22.014;2022-11-23T06:48:06;20.50;;;9.40;;
65009;SDS011;51556;50.002;22.014;2022-11-23T06:50:31;26.40;;;10.80;;
65009;SDS011;51556;50.002;22.014;2022-11-23T06:52:57;23.90;;;11.00;;
65009;SDS011;51556;50.002;22.014;2022-11-23T06:55:23;22.50;;;9.30;;
65009;SDS011;51556;50.002;22.014;2022-11-23T06:57:49;19.80;;;10.20;;
65009;SDS011;51556;50.002;22.014;2022-11-23T07:00:16;19.70;;;9.20;;
65009;SDS011;51556;50.002;22.014;2022-11-23T07:02:43;19.80;;;9.20;;
65009;SDS011;51556;50.002;22.014;2022-11-23T07:05:08;21.00;;;10.40;;
65009;SDS011;51556;50.002;22.014;2022-11-23T07:07:34;20.00;;;8.90;;
65009;SDS011;51556;50.002;22.014;2022-11-23T07:10:00;26.70;;;12.10;;
65009;SDS011;51556;50.002;22.014;2022-11-23T07:12:25;13.80;;;7.30;;
65009;SDS011;51556;50.002;22.014;2022-11-23T07:14:51;14.50;;;7.60;;
65009;SDS011;51556;50.002;22.014;2022-11-23T07:17:16;16.00;;;8.30;;
65009;SDS011;51556;50.002;22.014;2022-11-23T07:19:42;19.20;;;10.40;;
65009;SDS011;51556;50.002;22.014;2022-11-23T07:22:07;21.60;;;10.60;;
65009;SDS011;51556;50.002;22.014;2022-11-23T07:24:32;25.10;;;10.70;;
65009;SDS011;51556;50.002;22.014;2022-11-23T07:26:58;25.10;;;11.20;;
65009;SDS011;51556;50.002;22.014;2022-11-23T07:29:23;22.30;;;10.00;;
65009;SDS011;51556;50.002;22.014;2022-11-23T07:31:48;22.80;;;10.20;;
65009;SDS011;51556;50.002;22.014;2022-11-23T07:34:14;28.50;;;12.30;;
65009;SDS011;51556;50.002;22.014;2022-11-23T07:36:39;26.00;;;11.80;;
65009;SDS011;51556;50.002;22.014;2022-11-23T07:39:05;20.70;;;9.40;;
65009;SDS011;51556;50.002;22.014;2022-11-23T07:41:31;26.10;;;11.40;;
65009;SDS011;51556;50.002;22.014;2022-11-23T07:43:56;26.40;;;13.10;;
65009;SDS011;51556;50.002;22.014;2022-11-23T07:46:21;27.80;;;12.20;;
65009;SDS011;51556;50.002;22.014;2022-11-23T07:48:47;26.30;;;12.10;;
65009;SDS011;51556;50.002;22.014;2022-11-23T07:51:13;28.10;;;12.40;;
65009;SDS011;51556;50.002;22.014;2022-11-23T07:53:40;28.40;;;13.40;;
65009;SDS011;51556;50.002;22.014;2022-11-23T07:56:05;24.80;;;10.70;;
65009;SDS011;51556;50.002;22.014;2022-11-23T07:58:31;26.90;;;12.20;;
65009;SDS011;51556;50.002;22.014;2022-11-23T08:00:57;21.00;;;9.90;;
65009;SDS011;51556;50.002;22.014;2022-11-23T08:03:22;22.60;;;10.40;;
65009;SDS011;51556;50.002;22.014;2022-11-23T08:05:48;20.60;;;9.50;;
65009;SDS011;51556;50.002;22.014;2022-11-23T08:08:13;20.50;;;9.10;;
65009;SDS011;51556;50.002;22.014;2022-11-23T08:10:38;25.00;;;12.40;;
65009;SDS011;51556;50.002;22.014;2022-11-23T08:13:04;27.30;;;12.40;;
65009;SDS011;51556;50.002;22.014;2022-11-23T08:15:30;26.60;;;11.50;;
65009;SDS011;51556;50.002;22.014;2022-11-23T08:18:00;25.00;;;11.00;;
65009;SDS011;51556;50.002;22.014;2022-11-23T08:20:27;23.00;;;9.80;;
65009;SDS011;51556;50.002;22.014;2022-11-23T08:22:54;21.90;;;10.40;;
65009;SDS011;51556;50.002;22.014;2022-11-23T08:25:20;24.00;;;11.30;;
65009;SDS011;51556;50.002;22.014;2022-11-23T08:27:46;18.90;;;10.20;;
65009;SDS011;51556;50.002;22.014;2022-11-23T08:30:12;23.10;;;10.10;;
65009;SDS011;51556;50.002;22.014;2022-11-23T08:32:38;20.00;;;9.90;;
65009;SDS011;51556;50.002;22.014;2022-11-23T08:35:04;25.50;;;11.20;;
65009;SDS011;51556;50.002;22.014;2022-11-23T08:37:30;23.10;;;11.50;;
65009;SDS011;51556;50.002;22.014;2022-11-23T08:39:56;19.50;;;9.40;;
65009;SDS011;51556;50.002;22.014;2022-11-23T08:42:21;19.80;;;9.50;;
65009;SDS011;51556;50.002;22.014;2022-11-23T08:44:46;17.70;;;9.80;;
65009;SDS011;51556;50.002;22.014;2022-11-23T08:47:12;21.40;;;10.30;;
65009;SDS011;51556;50.002;22.014;2022-11-23T08:49:37;19.20;;;10.90;;
65009;SDS011;51556;50.002;22.014;2022-11-23T08:52:03;18.80;;;9.20;;
65009;SDS011;51556;50.002;22.014;2022-11-23T08:54:28;17.70;;;8.80;;
65009;SDS011;51556;50.002;22.014;2022-11-23T08:56:55;16.10;;;8.10;;
65009;SDS011;51556;50.002;22.014;2022-11-23T08:59:21;21.50;;;10.70;;
65009;SDS011;51556;50.002;22.014;2022-11-23T09:01:46;20.00;;;10.60;;
65009;SDS011;51556;50.002;22.014;2022-11-23T09:04:12;21.80;;;10.20;;
65009;SDS011;51556;50.002;22.014;2022-11-23T09:06:37;25.50;;;11.70;;
65009;SDS011;51556;50.002;22.014;2022-11-23T09:09:03;27.50;;;14.00;;
65009;SDS011;51556;50.002;22.014;2022-11-23T09:11:28;22.20;;;11.90;;
65009;SDS011;51556;50.002;22.014;2022-11-23T09:13:54;21.00;;;10.80;;
65009;SDS011;51556;50.002;22.014;2022-11-23T09:16:19;22.20;;;10.70;;
65009;SDS011;51556;50.002;22.014;2022-11-23T09:18:45;23.10;;;11.00;;
65009;SDS011;51556;50.002;22.014;2022-11-23T09:21:10;24.30;;;11.10;;
65009;SDS011;51556;50.002;22.014;2022-11-23T09:23:36;24.10;;;11.60;;
65009;SDS011;51556;50.002;22.014;2022-11-23T09:26:01;31.10;;;15.00;;
65009;SDS011;51556;50.002;22.014;2022-11-23T09:28:28;26.50;;;11.80;;
65009;SDS011;51556;50.002;22.014;2022-11-23T09:30:55;23.60;;;9.90;;
65009;SDS011;51556;50.002;22.014;2022-11-23T09:33:21;26.50;;;12.00;;
65009;SDS011;51556;50.002;22.014;2022-11-23T09:36:01;28.00;;;12.80;;
65009;SDS011;51556;50.002;22.014;2022-11-23T09:38:28;20.50;;;10.30;;
65009;SDS011;51556;50.002;22.014;2022-11-23T09:41:00;27.80;;;12.30;;
65009;SDS011;51556;50.002;22.014;2022-11-23T09:43:35;24.80;;;12.40;;
65009;SDS011;51556;50.002;22.014;2022-11-23T09:49:17;23.60;;;11.20;;
65009;SDS011;51556;50.002;22.014;2022-11-23T09:51:45;22.80;;;12.00;;
65009;SDS011;51556;50.002;22.014;2022-11-23T09:54:23;23.60;;;11.50;;
65009;SDS011;51556;50.002;22.014;2022-11-23T09:56:56;27.90;;;14.30;;
65009;SDS011;51556;50.002;22.014;2022-11-23T10:01:56;23.20;;;11.50;;
65009;SDS011;51556;50.002;22.014;2022-11-23T10:04:24;29.50;;;13.70;;
65009;SDS011;51556;50.002;22.014;2022-11-23T10:06:56;21.60;;;10.70;;
65009;SDS011;51556;50.002;22.014;2022-11-23T10:15:32;30.00;;;14.40;;
65009;SDS011;51556;50.002;22.014;2022-11-23T10:26:15;32.70;;;15.10;;
65009;SDS011;51556;50.002;22.014;2022-11-23T10:28:44;27.40;;;12.90;;
65009;SDS011;51556;50.002;22.014;2022-11-23T10:36:33;29.00;;;12.50;;
65009;SDS011;51556;50.002;22.014;2022-11-23T10:39:00;24.40;;;11.50;;
65009;SDS011;51556;50.002;22.014;2022-11-23T10:41:29;25.60;;;13.00;;
65009;SDS011;51556;50.002;22.014;2022-11-23T10:47:07;27.10;;;11.90;;
65009;SDS011;51556;50.002;22.014;2022-11-23T10:49:33;25.80;;;13.50;;
65009;SDS011;51556;50.002;22.014;2022-11-23T10:52:03;24.10;;;11.80;;
65009;SDS011;51556;50.002;22.014;2022-11-23T10:54:51;29.90;;;13.30;;
65009;SDS011;51556;50.002;22.014;2022-11-23T11:05:35;35.00;;;16.30;;
65009;SDS011;51556;50.002;22.014;2022-11-23T11:08:12;31.60;;;15.00;;
65009;SDS011;51556;50.002;22.014;2022-11-23T11:10:55;33.20;;;15.70;;
65009;SDS011;51556;50.002;22.014;2022-11-23T11:18:31;29.70;;;13.50;;
65009;SDS011;51556;50.002;22.014;2022-11-23T11:21:06;34.80;;;16.50;;
65009;SDS011;51556;50.002;22.014;2022-11-23T11:23:44;36.60;;;16.10;;
65009;SDS011;51556;50.002;22.014;2022-11-23T11:26:26;36.80;;;14.90;;
65009;SDS011;51556;50.002;22.014;2022-11-23T11:28:55;36.80;;;17.10;;
65009;SDS011;51556;50.002;22.014;2022-11-23T11:31:38;35.20;;;16.90;;
65009;SDS011;51556;50.002;22.014;2022-11-23T11:35:09;35.80;;;16.00;;
65009;SDS011;51556;50.002;22.014;2022-11-23T11:37:35;29.80;;;15.10;;
65009;SDS011;51556;50.002;22.014;2022-11-23T11:45:47;42.20;;;17.70;;
65009;SDS011;51556;50.002;22.014;2022-11-23T11:48:18;32.30;;;15.00;;
65009;SDS011;51556;50.002;22.014;2022-11-23T11:58:55;31.10;;;15.90;;
65009;SDS011;51556;50.002;22.014;2022-11-23T12:01:41;26.60;;;12.30;;
65009;SDS011;51556;50.002;22.014;2022-11-23T12:09:51;37.10;;;17.00;;
65009;SDS011;51556;50.002;22.014;2022-11-23T12:12:24;38.30;;;18.30;;
65009;SDS011;51556;50.002;22.014;2022-11-23T12:14:50;40.30;;;19.20;;
65009;SDS011;51556;50.002;22.014;2022-11-23T12:28:08;31.30;;;16.60;;
65009;SDS011;51556;50.002;22.014;2022-11-23T12:36:40;27.50;;;14.10;;
65009;SDS011;51556;50.002;22.014;2022-11-23T12:42:18;26.40;;;13.70;;
65009;SDS011;51556;50.002;22.014;2022-11-23T12:45:28;26.00;;;12.40;;
65009;SDS011;51556;50.002;22.014;2022-11-23T12:50:39;34.40;;;15.90;;
65009;SDS011;51556;50.002;22.014;2022-11-23T12:58:51;38.60;;;16.90;;
65009;SDS011;51556;50.002;22.014;2022-11-23T13:01:29;38.90;;;19.50;;
65009;SDS011;51556;50.002;22.014;2022-11-23T13:10:08;33.50;;;16.70;;
65009;SDS011;51556;50.002;22.014;2022-11-23T13:18:37;30.90;;;13.00;;
65009;SDS011;51556;50.002;22.014;2022-11-23T13:21:33;27.40;;;11.70;;
65009;SDS011;51556;50.002;22.014;2022-11-23T13:24:02;23.50;;;12.80;;
65009;SDS011;51556;50.002;22.014;2022-11-23T13:26:28;33.40;;;14.00;;
65009;SDS011;51556;50.002;22.014;2022-11-23T13:28:57;32.90;;;13.70;;
65009;SDS011;51556;50.002;22.014;2022-11-23T13:34:00;37.30;;;15.60;;
65009;SDS011;51556;50.002;22.014;2022-11-23T13:42:07;36.90;;;15.00;;
65009;SDS011;51556;50.002;22.014;2022-11-23T13:44:34;29.70;;;13.90;;
65009;SDS011;51556;50.002;22.014;2022-11-23T13:49:43;35.40;;;16.80;;
65009;SDS011;51556;50.002;22.014;2022-11-23T13:57:33;35.20;;;15.90;;
65009;SDS011;51556;50.002;22.014;2022-11-23T14:03:49;49.50;;;19.80;;
65009;SDS011;51556;50.002;22.014;2022-11-23T14:06:19;40.80;;;19.40;;
65009;SDS011;51556;50.002;22.014;2022-11-23T14:09:33;56.60;;;23.80;;
65009;SDS011;51556;50.002;22.014;2022-11-23T14:14:48;58.90;;;24.00;;
65009;SDS011;51556;50.002;22.014;2022-11-23T14:37:38;37.30;;;14.90;;
65009;SDS011;51556;50.002;22.014;2022-11-23T14:42:56;28.60;;;13.80;;
65009;SDS011;51556;50.002;22.014;2022-11-23T14:45:27;36.90;;;18.10;;
65009;SDS011;51556;50.002;22.014;2022-11-23T14:47:56;38.10;;;17.90;;
65009;SDS011;51556;50.002;22.014;2022-11-23T14:52:49;36.20;;;18.70;;
65009;SDS011;51556;50.002;22.014;2022-11-23T14:55:19;39.30;;;19.20;;
65009;SDS011;51556;50.002;22.014;2022-11-23T14:57:49;36.60;;;18.40;;
65009;SDS011;51556;50.002;22.014;2022-11-23T15:03:12;44.60;;;19.50;;
65009;SDS011;51556;50.002;22.014;2022-11-23T15:05:42;45.00;;;21.70;;
65009;SDS011;51556;50.002;22.014;2022-11-23T15:08:19;50.40;;;22.00;;
65009;SDS011;51556;50.002;22.014;2022-11-23T15:13:22;41.90;;;19.60;;
65009;SDS011;51556;50.002;22.014;2022-11-23T15:15:51;48.80;;;21.40;;
65009;SDS011;51556;50.002;22.014;2022-11-23T15:18:52;44.90;;;20.20;;
65009;SDS011;51556;50.002;22.014;2022-11-23T15:23:40;41.70;;;19.10;;
65009;SDS011;51556;50.002;22.014;2022-11-23T15:28:44;51.70;;;22.40;;
65009;SDS011;51556;50.002;22.014;2022-11-23T15:33:52;46.50;;;20.30;;
65009;SDS011;51556;50.002;22.014;2022-11-23T15:36:38;54.10;;;24.70;;
65009;SDS011;51556;50.002;22.014;2022-11-23T15:39:06;61.70;;;25.60;;
65009;SDS011;51556;50.002;22.014;2022-11-23T15:41:37;30.90;;;14.80;;
65009;SDS011;51556;50.002;22.014;2022-11-23T15:44:20;45.60;;;17.40;;
65009;SDS011;51556;50.002;22.014;2022-11-23T15:46:49;36.90;;;16.40;;
65009;SDS011;51556;50.002;22.014;2022-11-23T15:49:17;33.20;;;15.70;;
65009;SDS011;51556;50.002;22.014;2022-11-23T15:51:44;25.80;;;13.00;;
65009;SDS011;51556;50.002;22.014;2022-11-23T15:54:44;36.40;;;16.20;;
65009;SDS011;51556;50.002;22.014;2022-11-23T15:57:06;21.20;;;11.90;;
65009;SDS011;51556;50.002;22.014;2022-11-23T15:59:42;28.90;;;14.10;;
65009;SDS011;51556;50.002;22.014;2022-11-23T16:02:14;23.80;;;12.70;;
65009;SDS011;51556;50.002;22.014;2022-11-23T16:04:41;19.40;;;10.60;;
65009;SDS011;51556;50.002;22.014;2022-11-23T16:07:21;20.60;;;11.30;;
65009;SDS011;51556;50.002;22.014;2022-11-23T16:09:49;21.90;;;13.00;;
65009;SDS011;51556;50.002;22.014;2022-11-23T16:12:27;37.20;;;18.20;;
65009;SDS011;51556;50.002;22.014;2022-11-23T16:15:28;47.50;;;22.40;;
65009;SDS011;51556;50.002;22.014;2022-11-23T16:18:02;37.70;;;18.90;;
65009;SDS011;51556;50.002;22.014;2022-11-23T16:20:29;33.30;;;18.30;;
65009;SDS011;51556;50.002;22.014;2022-11-23T16:22:57;29.80;;;16.90;;
65009;SDS011;51556;50.002;22.014;2022-11-23T16:27:59;32.50;;;16.20;;
65009;SDS011;51556;50.002;22.014;2022-11-23T16:30:35;36.40;;;18.80;;
65009;SDS011;51556;50.002;22.014;2022-11-23T16:33:03;41.30;;;19.30;;
65009;SDS011;51556;50.002;22.014;2022-11-23T16:35:29;41.90;;;20.40;;
65009;SDS011;51556;50.002;22.014;2022-11-23T16:37:54;47.20;;;23.00;;
65009;SDS011;51556;50.002;22.014;2022-11-23T16:40:20;51.10;;;25.10;;
65009;SDS011;51556;50.002;22.014;2022-11-23T16:42:52;49.60;;;22.30;;
65009;SDS011;51556;50.002;22.014;2022-11-23T16:45:18;46.90;;;21.90;;
65009;SDS011;51556;50.002;22.014;2022-11-23T16:47:54;47.50;;;21.50;;
65009;SDS011;51556;50.002;22.014;2022-11-23T16:50:26;41.90;;;20.20;;
65009;SDS011;51556;50.002;22.014;2022-11-23T16:52:53;37.90;;;18.90;;
65009;SDS011;51556;50.002;22.014;2022-11-23T16:55:19;30.60;;;15.60;;
65009;SDS011;51556;50.002;22.014;2022-11-23T16:57:44;26.60;;;13.80;;
65009;SDS011;51556;50.002;22.014;2022-11-23T17:00:18;29.30;;;14.20;;
65009;SDS011;51556;50.002;22.014;2022-11-23T17:02:46;40.00;;;17.90;;
65009;SDS011;51556;50.002;22.014;2022-11-23T17:05:12;27.60;;;13.60;;